Time;durP1;ratioP1;P1;durP2;ratioP2;P2;SDS_P1;SDS_P2;PMS_P1;PMS_P2;Temp;Humidity;BMP_temperature;BMP_pressure;BME280_temperature;BME280_humidity;BME280_pressure;Samples;Min_cycle;Max_cycle;Signal;HPM_P1;HPM_P2
2021/12/26 00:01:01;;;;;;;2.17;2.08;;;;;;;;;;5044561;28;20056;-72
2021/12/26 00:03:29;;;;;;;15.65;4.63;;;;;;;;;;5035700;28;20037;-71
2021/12/26 00:05:55;;;;;;;9.30;4.63;;;;;;;;;;5029851;28;20029;-71
2021/12/26 00:08:21;;;;;;;3.45;3.22;;;;;;;;;;5041984;28;20032;-71
2021/12/26 00:10:48;;;;;;;9.10;7.10;;;;;;;;;;5047782;28;20037;-71
2021/12/26 00:13:14;;;;;;;10.50;4.90;;;;;;;;;;5032189;28;20034;-71
2021/12/26 00:15:40;;;;;;;9.52;6.18;;;;;;;;;;5036317;28;20032;-71
2021/12/26 00:18:09;;;;;;;5.15;4.65;;;;;;;;;;5029960;28;20033;-72
2021/12/26 00:20:35;;;;;;;3.08;2.88;;;;;;;;;;5029855;28;20029;-72
2021/12/26 00:23:01;;;;;;;4.35;2.13;;;;;;;;;;5040185;28;20033;-71
2021/12/26 00:25:27;;;;;;;12.45;8.13;;;;;;;;;;5042830;28;20133;-71
2021/12/26 00:27:53;;;;;;;5.10;3.95;;;;;;;;;;5031636;28;20180;-72
2021/12/26 00:30:20;;;;;;;2.53;2.40;;;;;;;;;;5029644;28;20401;-71
2021/12/26 00:32:46;;;;;;;14.50;7.07;;;;;;;;;;5030356;28;20112;-71
2021/12/26 00:35:13;;;;;;;23.98;9.23;;;;;;;;;;5039459;28;20033;-70
2021/12/26 00:37:40;;;;;;;7.53;5.32;;;;;;;;;;5035419;28;20037;-71
2021/12/26 00:40:07;;;;;;;3.25;2.78;;;;;;;;;;5042191;28;20053;-71
2021/12/26 00:42:33;;;;;;;2.15;2.05;;;;;;;;;;5043198;28;20056;-71
2021/12/26 00:44:59;;;;;;;3.65;3.40;;;;;;;;;;5035785;28;20447;-71
2021/12/26 00:47:29;;;;;;;5.03;4.53;;;;;;;;;;5036268;28;20394;-70
2021/12/26 00:49:55;;;;;;;9.60;6.85;;;;;;;;;;5039802;28;20479;-71
2021/12/26 00:52:21;;;;;;;11.57;4.30;;;;;;;;;;5044174;28;20032;-71
2021/12/26 00:54:47;;;;;;;5.93;5.13;;;;;;;;;;5039826;28;20403;-70
2021/12/26 00:57:12;;;;;;;4.20;3.35;;;;;;;;;;5029155;28;20451;-70
2021/12/26 00:59:38;;;;;;;7.43;4.50;;;;;;;;;;5043798;28;20147;-71
2021/12/26 01:02:04;;;;;;;4.95;3.67;;;;;;;;;;5029511;28;20056;-71
2021/12/26 01:04:30;;;;;;;11.02;6.10;;;;;;;;;;5046973;28;20040;-70
2021/12/26 01:06:56;;;;;;;7.18;4.18;;;;;;;;;;5056493;28;20048;-71
2021/12/26 01:09:26;;;;;;;4.28;3.88;;;;;;;;;;5040341;28;20033;-71
2021/12/26 01:11:56;;;;;;;6.45;3.42;;;;;;;;;;5033253;28;20059;-70
2021/12/26 01:14:26;;;;;;;4.10;3.25;;;;;;;;;;5029455;28;20492;-71
2021/12/26 01:17:02;;;;;;;1.27;1.23;;;;;;;;;;5029561;28;20402;-71
2021/12/26 01:19:34;;;;;;;3.95;3.38;;;;;;;;;;5028373;28;20388;-70
2021/12/26 01:22:01;;;;;;;5.15;4.63;;;;;;;;;;5028923;28;20021;-70
2021/12/26 01:24:27;;;;;;;5.28;4.80;;;;;;;;;;5029123;28;20251;-70
2021/12/26 01:26:52;;;;;;;3.08;2.88;;;;;;;;;;5028474;28;20060;-71
2021/12/26 01:29:18;;;;;;;2.75;1.60;;;;;;;;;;5030494;28;20598;-70
2021/12/26 01:31:44;;;;;;;2.75;2.58;;;;;;;;;;5040603;28;20030;-71
2021/12/26 01:34:10;;;;;;;4.80;3.60;;;;;;;;;;5034983;28;20032;-71
2021/12/26 01:36:36;;;;;;;2.15;2.03;;;;;;;;;;5028569;28;20400;-71
2021/12/26 01:39:07;;;;;;;2.92;2.40;;;;;;;;;;5028576;28;20041;-70
2021/12/26 01:41:38;;;;;;;1.30;1.27;;;;;;;;;;5028706;28;20036;-71
2021/12/26 01:44:04;;;;;;;;;;;;;;;;;;5029151;28;20025;-70
2021/12/26 01:46:31;;;;;;;5.47;4.32;;;;;;;;;;5030607;28;19909;-71
2021/12/26 01:49:08;;;;;;;2.72;2.40;;;;;;;;;;5042853;28;20117;-71
2021/12/26 01:51:34;;;;;;;2.35;2.15;;;;;;;;;;5042189;28;20026;-71
2021/12/26 01:54:05;;;;;;;2.08;1.98;;;;;;;;;;5031317;28;20460;-71
2021/12/26 01:56:31;;;;;;;5.20;3.97;;;;;;;;;;5028831;28;20478;-71
2021/12/26 01:58:57;;;;;;;1.92;1.50;;;;;;;;;;5031348;28;20124;-70
2021/12/26 02:01:23;;;;;;;5.20;4.22;;;;;;;;;;5038043;28;20035;-70
2021/12/26 02:03:49;;;;;;;17.58;7.20;;;;;;;;;;5046045;28;20632;-70
2021/12/26 02:06:16;;;;;;;9.15;5.53;;;;;;;;;;5036980;28;20040;-71
2021/12/26 02:08:42;;;;;;;2.05;1.85;;;;;;;;;;5034768;28;20132;-71
2021/12/26 02:11:08;;;;;;;1.55;1.45;;;;;;;;;;5041763;28;20021;-71
2021/12/26 02:13:37;;;;;;;6.50;3.88;;;;;;;;;;5046883;28;20025;-71
2021/12/26 02:16:04;;;;;;;2.58;2.38;;;;;;;;;;5042858;28;20037;-70
2021/12/26 02:18:30;;;;;;;1.65;1.55;;;;;;;;;;5036750;28;20033;-71
2021/12/26 02:21:12;;;;;;;5.85;3.17;;;;;;;;;;5032752;28;20687;-70
2021/12/26 02:24:01;;;;;;;1.88;1.77;;;;;;;;;;5030302;28;20036;-70
2021/12/26 02:29:12;;;;;;;8.30;4.00;;;;;;;;;;5028407;28;20040;-70
2021/12/26 02:31:38;;;;;;;2.92;2.72;;;;;;;;;;5032054;28;20026;-71
2021/12/26 02:34:04;;;;;;;1.40;1.25;;;;;;;;;;5032047;28;20530;-70
2021/12/26 02:36:30;;;;;;;3.83;3.42;;;;;;;;;;5041245;28;20609;-70
2021/12/26 02:38:56;;;;;;;26.35;2.28;;;;;;;;;;5050755;28;20048;-70
2021/12/26 02:41:22;;;;;;;7.40;4.88;;;;;;;;;;5039285;28;20041;-70
2021/12/26 02:43:47;;;;;;;1.58;1.48;;;;;;;;;;5031609;28;20037;-70
2021/12/26 02:46:13;;;;;;;2.22;2.13;;;;;;;;;;5034459;28;20037;-71
2021/12/26 02:48:39;;;;;;;4.82;4.43;;;;;;;;;;5038768;28;20044;-70
2021/12/26 02:51:06;;;;;;;1.33;1.30;;;;;;;;;;5034115;28;20025;-70
2021/12/26 02:53:32;;;;;;;12.38;4.60;;;;;;;;;;5031469;28;20057;-70
2021/12/26 02:55:58;;;;;;;4.45;3.25;;;;;;;;;;5031192;28;20025;-70
2021/12/26 02:58:24;;;;;;;2.45;2.22;;;;;;;;;;5043213;28;20071;-71
2021/12/26 03:00:52;;;;;;;1.48;1.38;;;;;;;;;;5050251;28;20162;-71
2021/12/26 03:03:19;;;;;;;2.33;2.13;;;;;;;;;;5031546;28;20033;-71
2021/12/26 03:05:46;;;;;;;2.33;2.17;;;;;;;;;;5031111;28;20492;-70
2021/12/26 03:08:13;;;;;;;9.75;3.72;;;;;;;;;;5035084;28;20025;-70
2021/12/26 03:10:39;;;;;;;0.98;0.93;;;;;;;;;;5030860;28;20028;-70
2021/12/26 03:13:08;;;;;;;2.92;2.72;;;;;;;;;;5034670;28;20036;-70
2021/12/26 03:15:34;;;;;;;1.95;1.83;;;;;;;;;;5042929;28;20024;-70
2021/12/26 03:18:01;;;;;;;7.28;4.43;;;;;;;;;;5043873;28;20057;-71
2021/12/26 03:20:31;;;;;;;2.90;2.70;;;;;;;;;;5034316;28;20758;-70
2021/12/26 03:22:59;;;;;;;6.28;5.10;;;;;;;;;;5030579;28;20043;-71
2021/12/26 03:25:26;;;;;;;6.03;1.75;;;;;;;;;;5031066;28;20076;-71
2021/12/26 03:27:52;;;;;;;1.35;1.25;;;;;;;;;;5030621;28;20053;-70
2021/12/26 03:30:20;;;;;;;1.70;1.13;;;;;;;;;;5030418;28;20035;-70
2021/12/26 03:32:47;;;;;;;4.18;1.98;;;;;;;;;;5045550;28;20075;-70
2021/12/26 03:35:12;;;;;;;0.93;0.93;;;;;;;;;;5046268;28;20026;-70
2021/12/26 03:37:39;;;;;;;1.73;1.02;;;;;;;;;;5030983;28;20034;-70
2021/12/26 03:40:06;;;;;;;3.03;2.20;;;;;;;;;;5037965;28;20060;-71
2021/12/26 03:42:31;;;;;;;1.48;1.38;;;;;;;;;;5029240;28;20030;-71
2021/12/26 03:44:57;;;;;;;1.75;1.30;;;;;;;;;;5042763;28;20032;-70
2021/12/26 03:47:23;;;;;;;4.05;2.72;;;;;;;;;;5042817;28;20075;-70
2021/12/26 03:49:50;;;;;;;0.50;0.50;;;;;;;;;;5036571;28;20758;-70
2021/12/26 03:52:16;;;;;;;7.03;3.78;;;;;;;;;;5033854;28;20064;-71
2021/12/26 03:54:42;;;;;;;3.58;3.28;;;;;;;;;;5033854;28;20044;-70
2021/12/26 03:57:08;;;;;;;2.88;2.65;;;;;;;;;;5032093;28;20468;-71
2021/12/26 03:59:34;;;;;;;1.30;1.20;;;;;;;;;;5038937;28;20025;-71
2021/12/26 04:02:00;;;;;;;5.30;4.80;;;;;;;;;;5038839;28;20026;-70
2021/12/26 04:04:29;;;;;;;1.35;1.20;;;;;;;;;;5031878;28;20022;-70
2021/12/26 04:06:55;;;;;;;1.98;1.23;;;;;;;;;;5042727;28;20043;-70
2021/12/26 04:09:21;;;;;;;9.85;1.65;;;;;;;;;;5034492;28;20125;-70
2021/12/26 04:11:47;;;;;;;1.98;0.63;;;;;;;;;;5030974;28;20112;-71
2021/12/26 04:14:14;;;;;;;1.15;1.15;;;;;;;;;;5045979;28;20028;-70
2021/12/26 04:16:40;;;;;;;1.40;1.30;;;;;;;;;;5036930;28;20060;-70
2021/12/26 04:19:06;;;;;;;1.02;0.93;;;;;;;;;;5034331;28;20692;-70
2021/12/26 04:21:32;;;;;;;2.78;2.58;;;;;;;;;;5035387;28;20028;-70
2021/12/26 04:23:58;;;;;;;6.07;3.35;;;;;;;;;;5046808;28;20032;-70
2021/12/26 04:26:24;;;;;;;2.97;2.58;;;;;;;;;;5040680;28;20395;-70
2021/12/26 04:28:50;;;;;;;1.52;1.45;;;;;;;;;;5035183;28;20044;-70
2021/12/26 04:31:16;;;;;;;4.72;3.72;;;;;;;;;;5030594;28;20044;-70
2021/12/26 04:33:42;;;;;;;1.00;1.00;;;;;;;;;;5030101;28;20033;-70
2021/12/26 04:36:08;;;;;;;1.55;1.45;;;;;;;;;;5031903;28;20033;-70
2021/12/26 04:38:35;;;;;;;1.30;0.60;;;;;;;;;;5029357;28;20055;-70
2021/12/26 04:41:03;;;;;;;2.60;2.38;;;;;;;;;;5028988;28;20041;-70
2021/12/26 04:43:29;;;;;;;1.27;1.17;;;;;;;;;;5035172;28;20112;-71
2021/12/26 04:45:55;;;;;;;7.13;5.72;;;;;;;;;;5041454;28;20149;-70
2021/12/26 04:48:21;;;;;;;8.10;3.80;;;;;;;;;;5029148;28;20067;-70
2021/12/26 04:50:47;;;;;;;3.95;3.63;;;;;;;;;;5038089;28;20052;-70
2021/12/26 04:53:13;;;;;;;1.75;1.33;;;;;;;;;;5037115;28;20148;-70
2021/12/26 04:55:40;;;;;;;7.43;4.55;;;;;;;;;;5029200;28;20071;-70
2021/12/26 04:58:06;;;;;;;5.32;3.60;;;;;;;;;;5047402;28;20468;-70
2021/12/26 05:00:32;;;;;;;6.32;4.15;;;;;;;;;;5030221;28;20038;-70
2021/12/26 05:02:59;;;;;;;1.13;1.02;;;;;;;;;;5031121;28;20049;-70
2021/12/26 05:05:26;;;;;;;2.83;2.58;;;;;;;;;;5029419;28;20021;-70
2021/12/26 05:07:54;;;;;;;3.40;3.15;;;;;;;;;;5032174;28;20417;-70
2021/12/26 05:10:20;;;;;;;3.78;3.05;;;;;;;;;;5041338;28;20109;-70
2021/12/26 05:12:47;;;;;;;2.85;1.73;;;;;;;;;;5030718;28;20079;-70
2021/12/26 05:15:15;;;;;;;0.45;0.45;;;;;;;;;;5039692;28;20036;-70
2021/12/26 05:17:41;;;;;;;0.40;0.40;;;;;;;;;;5043880;28;20788;-70
2021/12/26 05:20:07;;;;;;;3.10;2.53;;;;;;;;;;5038368;28;20037;-71
2021/12/26 05:22:33;;;;;;;5.63;3.33;;;;;;;;;;5040870;28;20060;-70
2021/12/26 05:24:59;;;;;;;0.47;0.47;;;;;;;;;;5036795;28;20476;-71
2021/12/26 05:27:25;;;;;;;5.00;4.18;;;;;;;;;;5039770;28;20049;-69
2021/12/26 05:29:51;;;;;;;2.63;2.08;;;;;;;;;;5043768;28;20124;-70
2021/12/26 05:32:17;;;;;;;4.97;3.50;;;;;;;;;;5029115;28;20298;-70
2021/12/26 05:34:43;;;;;;;2.17;2.08;;;;;;;;;;5032381;28;20048;-70
2021/12/26 05:37:09;;;;;;;4.35;2.03;;;;;;;;;;5028594;28;20030;-70
2021/12/26 05:39:35;;;;;;;0.77;0.77;;;;;;;;;;5035451;28;20030;-70
2021/12/26 05:42:01;;;;;;;1.77;1.67;;;;;;;;;;5037216;28;20450;-70
2021/12/26 05:44:27;;;;;;;0.20;0.20;;;;;;;;;;5028767;28;20021;-70
2021/12/26 05:46:53;;;;;;;6.80;2.13;;;;;;;;;;5028826;28;20064;-70
2021/12/26 05:49:19;;;;;;;1.15;1.15;;;;;;;;;;5028720;28;20029;-70
2021/12/26 05:51:45;;;;;;;4.63;2.28;;;;;;;;;;5042719;28;20504;-70
2021/12/26 05:54:10;;;;;;;3.47;1.63;;;;;;;;;;5034108;28;20064;-70
2021/12/26 05:56:36;;;;;;;2.15;1.98;;;;;;;;;;5043774;28;20879;-70
2021/12/26 05:59:03;;;;;;;0.75;0.75;;;;;;;;;;5048373;28;20040;-70
2021/12/26 06:01:29;;;;;;;3.22;1.88;;;;;;;;;;5048567;28;20029;-70
2021/12/26 06:03:55;;;;;;;2.80;1.75;;;;;;;;;;5047271;28;20040;-70
2021/12/26 06:06:21;;;;;;;0.45;0.45;;;;;;;;;;5031590;28;20452;-70
2021/12/26 06:08:46;;;;;;;0.65;0.65;;;;;;;;;;5037764;28;20055;-71
2021/12/26 06:11:12;;;;;;;0.20;0.20;;;;;;;;;;5050928;28;20033;-71
2021/12/26 06:13:38;;;;;;;0.68;0.68;;;;;;;;;;5051411;28;20047;-70
2021/12/26 06:16:04;;;;;;;3.63;1.77;;;;;;;;;;5043187;28;20025;-70
2021/12/26 06:18:30;;;;;;;2.40;2.10;;;;;;;;;;5032128;28;20025;-71
2021/12/26 06:20:56;;;;;;;1.15;1.15;;;;;;;;;;5032791;28;20487;-70
2021/12/26 06:23:22;;;;;;;0.82;0.77;;;;;;;;;;5036116;28;20395;-71
2021/12/26 06:25:48;;;;;;;1.33;1.27;;;;;;;;;;5037914;28;20032;-70
2021/12/26 06:28:14;;;;;;;2.75;1.35;;;;;;;;;;5031665;28;20053;-70
2021/12/26 06:30:40;;;;;;;0.60;0.60;;;;;;;;;;5033265;28;20049;-70
2021/12/26 06:33:06;;;;;;;6.55;0.63;;;;;;;;;;5032176;28;20029;-70
2021/12/26 06:35:32;;;;;;;1.23;1.13;;;;;;;;;;5043190;28;20598;-70
2021/12/26 06:37:57;;;;;;;2.40;2.10;;;;;;;;;;5038107;28;20060;-70
2021/12/26 06:40:23;;;;;;;1.90;1.38;;;;;;;;;;5035051;28;20056;-70
2021/12/26 06:42:50;;;;;;;1.20;1.13;;;;;;;;;;5036308;28;20048;-70
2021/12/26 06:45:18;;;;;;;1.67;1.63;;;;;;;;;;5041418;28;20033;-70
2021/12/26 06:47:49;;;;;;;6.80;2.85;;;;;;;;;;5034105;28;20076;-70
2021/12/26 06:50:16;;;;;;;0.25;0.25;;;;;;;;;;5031628;28;20234;-70
2021/12/26 06:52:41;;;;;;;0.38;0.38;;;;;;;;;;5031472;28;20025;-70
2021/12/26 06:55:08;;;;;;;0.63;0.63;;;;;;;;;;5044790;28;20055;-71
2021/12/26 06:57:34;;;;;;;2.20;2.03;;;;;;;;;;5031142;28;20468;-70
2021/12/26 07:00:00;;;;;;;0.38;0.35;;;;;;;;;;5046825;28;20036;-70
2021/12/26 07:02:26;;;;;;;1.95;1.80;;;;;;;;;;5032667;28;20126;-70
2021/12/26 07:04:51;;;;;;;3.83;1.92;;;;;;;;;;5044047;28;20039;-70
2021/12/26 07:07:17;;;;;;;1.20;1.15;;;;;;;;;;5048362;28;20168;-70
2021/12/26 07:09:43;;;;;;;0.20;0.20;;;;;;;;;;5038160;28;20029;-70
2021/12/26 07:12:11;;;;;;;2.10;1.07;;;;;;;;;;5038227;28;20467;-70
2021/12/26 07:14:37;;;;;;;1.92;0.75;;;;;;;;;;5050995;28;20025;-70
2021/12/26 07:17:02;;;;;;;1.70;1.60;;;;;;;;;;5043216;28;20036;-71
2021/12/26 07:19:28;;;;;;;0.60;0.60;;;;;;;;;;5036206;28;20026;-70
2021/12/26 07:21:54;;;;;;;3.53;2.03;;;;;;;;;;5030867;28;20423;-70
2021/12/26 07:24:20;;;;;;;2.70;2.50;;;;;;;;;;5030915;28;20037;-70
2021/12/26 07:26:46;;;;;;;1.45;0.75;;;;;;;;;;5030945;28;20053;-70
2021/12/26 07:29:12;;;;;;;0.52;0.52;;;;;;;;;;5033834;28;20067;-70
2021/12/26 07:31:38;;;;;;;4.03;1.85;;;;;;;;;;5049593;28;20036;-70
2021/12/26 07:34:04;;;;;;;0.82;0.82;;;;;;;;;;5045347;28;20087;-70
2021/12/26 07:36:30;;;;;;;0.40;0.40;;;;;;;;;;5032581;28;20033;-70
2021/12/26 07:38:56;;;;;;;0.95;0.95;;;;;;;;;;5030534;28;20036;-70
2021/12/26 07:41:22;;;;;;;0.93;0.90;;;;;;;;;;5044064;28;20056;-70
2021/12/26 07:43:48;;;;;;;1.85;1.75;;;;;;;;;;5035552;28;21648;-70
2021/12/26 07:46:14;;;;;;;1.08;1.00;;;;;;;;;;5033335;28;20128;-70
2021/12/26 07:48:40;;;;;;;8.55;2.42;;;;;;;;;;5042727;28;20029;-70
2021/12/26 07:51:32;;;;;;;0.75;0.75;;;;;;;;;;5039143;28;20399;-70
2021/12/26 07:54:00;;;;;;;0.43;0.43;;;;;;;;;;5019057;28;20476;-70
2021/12/26 07:56:26;;;;;;;1.05;0.95;;;;;;;;;;5030492;28;20021;-70
2021/12/26 07:58:52;;;;;;;9.40;0.93;;;;;;;;;;5047922;28;20091;-69
2021/12/26 08:01:18;;;;;;;0.73;0.73;;;;;;;;;;5050221;28;20036;-70
2021/12/26 08:03:46;;;;;;;0.55;0.55;;;;;;;;;;5039481;28;20498;-70
2021/12/26 08:06:16;;;;;;;1.02;1.02;;;;;;;;;;5035202;28;20033;-70
2021/12/26 08:08:42;;;;;;;2.25;2.10;;;;;;;;;;5031483;28;20048;-70
2021/12/26 08:11:08;;;;;;;0.70;0.70;;;;;;;;;;5030519;28;20029;-69
2021/12/26 08:13:34;;;;;;;0.70;0.70;;;;;;;;;;5037582;28;20051;-70
2021/12/26 08:16:00;;;;;;;0.40;0.40;;;;;;;;;;5042646;28;20112;-70
2021/12/26 08:18:26;;;;;;;6.18;3.35;;;;;;;;;;5034750;28;20034;-70
2021/12/26 08:20:52;;;;;;;0.10;0.10;;;;;;;;;;5038482;28;20025;-70
2021/12/26 08:23:18;;;;;;;1.40;1.30;;;;;;;;;;5032861;28;20029;-70
2021/12/26 08:25:45;;;;;;;0.98;0.98;;;;;;;;;;5036034;28;20034;-70
2021/12/26 08:28:11;;;;;;;0.40;0.40;;;;;;;;;;5043666;28;20381;-70
2021/12/26 08:30:37;;;;;;;4.13;2.45;;;;;;;;;;5033734;28;20056;-70
2021/12/26 08:33:06;;;;;;;0.52;0.32;;;;;;;;;;5028711;28;20032;-70
2021/12/26 08:35:32;;;;;;;1.00;1.00;;;;;;;;;;5029764;28;20188;-70
2021/12/26 08:37:58;;;;;;;0.43;0.43;;;;;;;;;;5028874;28;20041;-70
2021/12/26 08:40:24;;;;;;;0.57;0.57;;;;;;;;;;5029523;28;20036;-70
2021/12/26 08:42:50;;;;;;;0.75;0.75;;;;;;;;;;5029470;28;20037;-70
2021/12/26 08:45:16;;;;;;;0.47;0.47;;;;;;;;;;5039205;28;20029;-70
2021/12/26 08:47:42;;;;;;;0.47;0.47;;;;;;;;;;5054559;28;20074;-70
2021/12/26 08:50:10;;;;;;;0.50;0.50;;;;;;;;;;5031350;28;20033;-70
2021/12/26 08:52:36;;;;;;;0.80;0.80;;;;;;;;;;5029359;28;20112;-70
2021/12/26 08:55:02;;;;;;;1.05;1.02;;;;;;;;;;5031277;28;20078;-71
2021/12/26 08:57:29;;;;;;;1.48;1.30;;;;;;;;;;5028507;28;20021;-73
2021/12/26 08:59:55;;;;;;;1.25;1.15;;;;;;;;;;5032631;28;20033;-71
2021/12/26 09:02:21;;;;;;;0.30;0.20;;;;;;;;;;5031078;28;20029;-70
2021/12/26 09:04:47;;;;;;;0.68;0.68;;;;;;;;;;5035509;28;20037;-70
2021/12/26 09:07:13;;;;;;;2.22;1.85;;;;;;;;;;5032102;28;20032;-70
2021/12/26 09:09:39;;;;;;;3.50;1.13;;;;;;;;;;5040916;28;20471;-70
2021/12/26 09:12:05;;;;;;;0.45;0.45;;;;;;;;;;5039210;28;20104;-70
2021/12/26 09:14:32;;;;;;;0.82;0.82;;;;;;;;;;5032254;28;20029;-70
2021/12/26 09:16:58;;;;;;;0.70;0.70;;;;;;;;;;5032031;28;20033;-71
2021/12/26 09:19:27;;;;;;;0.30;0.30;;;;;;;;;;5038665;28;20068;-71
2021/12/26 09:21:53;;;;;;;1.42;1.33;;;;;;;;;;5033356;28;20116;-71
2021/12/26 09:24:19;;;;;;;1.55;1.45;;;;;;;;;;5035391;28;20033;-71
2021/12/26 09:26:45;;;;;;;0.38;0.38;;;;;;;;;;5030212;28;20057;-71
2021/12/26 09:29:11;;;;;;;0.60;0.60;;;;;;;;;;5036038;28;20392;-72
2021/12/26 09:31:37;;;;;;;0.45;0.45;;;;;;;;;;5041599;28;20661;-73
2021/12/26 09:34:03;;;;;;;1.25;1.23;;;;;;;;;;5041360;28;20018;-71
2021/12/26 09:36:32;;;;;;;0.10;0.10;;;;;;;;;;5035251;28;20083;-71
2021/12/26 09:38:58;;;;;;;0.10;0.10;;;;;;;;;;5036710;28;20491;-71
2021/12/26 09:41:27;;;;;;;4.43;1.30;;;;;;;;;;5052162;28;20064;-71
2021/12/26 09:43:53;;;;;;;0.43;0.43;;;;;;;;;;5037474;28;20120;-73
2021/12/26 09:46:19;;;;;;;0.08;0.08;;;;;;;;;;5038749;28;20068;-69
2021/12/26 09:48:45;;;;;;;0.10;0.10;;;;;;;;;;5034656;28;20033;-71
2021/12/26 09:51:12;;;;;;;1.55;1.45;;;;;;;;;;5050521;28;20033;-71
2021/12/26 09:53:39;;;;;;;1.65;1.55;;;;;;;;;;5043555;28;20519;-71
2021/12/26 09:56:06;;;;;;;1.10;1.05;;;;;;;;;;5045733;28;20472;-71
2021/12/26 09:58:32;;;;;;;0.32;0.32;;;;;;;;;;5040627;28;20041;-71
2021/12/26 10:00:58;;;;;;;0.28;0.28;;;;;;;;;;5038630;28;20478;-71
2021/12/26 10:03:33;;;;;;;1.95;1.83;;;;;;;;;;5039757;28;20018;-70
2021/12/26 10:06:10;;;;;;;0.75;0.75;;;;;;;;;;5047532;28;20029;-71
2021/12/26 10:08:50;;;;;;;1.55;1.45;;;;;;;;;;5034772;28;20041;-71
2021/12/26 10:11:17;;;;;;;0.13;0.13;;;;;;;;;;5033806;28;20039;-70
2021/12/26 10:13:45;;;;;;;1.75;1.55;;;;;;;;;;5032330;28;20025;-71
2021/12/26 10:16:12;;;;;;;2.28;1.75;;;;;;;;;;5040693;28;20025;-71
2021/12/26 10:18:41;;;;;;;0.35;0.30;;;;;;;;;;5032257;28;20037;-71
2021/12/26 10:21:22;;;;;;;0.10;0.10;;;;;;;;;;5033409;28;20578;-71
2021/12/26 10:23:48;;;;;;;0.57;0.45;;;;;;;;;;5037623;28;20557;-71
2021/12/26 10:26:21;;;;;;;0.17;0.17;;;;;;;;;;5037895;28;20128;-71
2021/12/26 10:29:03;;;;;;;0.50;0.50;;;;;;;;;;5050086;28;20031;-71
2021/12/26 10:31:29;;;;;;;0.25;0.25;;;;;;;;;;5045491;28;20487;-72
2021/12/26 10:33:55;;;;;;;0.30;0.30;;;;;;;;;;5033139;28;20842;-72
2021/12/26 10:36:21;;;;;;;0.10;0.10;;;;;;;;;;5031877;28;20030;-73
2021/12/26 10:39:06;;;;;;;0.22;0.22;;;;;;;;;;5037282;28;20029;-72
2021/12/26 10:41:32;;;;;;;1.30;0.85;;;;;;;;;;5041870;28;20037;-72
2021/12/26 10:43:58;;;;;;;0.47;0.47;;;;;;;;;;5030915;28;20457;-72
2021/12/26 10:46:24;;;;;;;0.10;0.10;;;;;;;;;;5041191;28;20031;-72
2021/12/26 10:48:50;;;;;;;0.10;0.10;;;;;;;;;;5045480;28;20029;-74
2021/12/26 10:51:35;;;;;;;1.27;0.80;;;;;;;;;;5037813;28;20029;-71
2021/12/26 10:54:14;;;;;;;4.20;2.28;;;;;;;;;;5035627;28;20053;-84
2021/12/26 10:56:40;;;;;;;0.10;0.10;;;;;;;;;;5036499;28;20035;-76
2021/12/26 10:59:21;;;;;;;0.20;0.20;;;;;;;;;;5031220;28;20112;-77
2021/12/26 11:01:48;;;;;;;0.15;0.15;;;;;;;;;;5031284;28;20161;-74
2021/12/26 11:04:15;;;;;;;0.40;0.40;;;;;;;;;;5045627;28;20048;-71
2021/12/26 11:06:59;;;;;;;0.50;0.50;;;;;;;;;;5033022;28;20025;-71
2021/12/26 11:09:25;;;;;;;0.52;0.52;;;;;;;;;;5031285;28;20383;-73
2021/12/26 11:12:05;;;;;;;0.25;0.25;;;;;;;;;;5038767;28;20551;-75
2021/12/26 11:14:31;;;;;;;0.70;0.70;;;;;;;;;;5031337;28;20036;-74
2021/12/26 11:16:57;;;;;;;0.10;0.10;;;;;;;;;;5038421;28;20361;-74
2021/12/26 11:19:39;;;;;;;0.47;0.47;;;;;;;;;;5039244;28;20025;-74
2021/12/26 11:22:05;;;;;;;0.45;0.45;;;;;;;;;;5045495;28;20387;-74
2021/12/26 11:24:31;;;;;;;0.65;0.63;;;;;;;;;;5033519;28;20120;-74
2021/12/26 11:26:57;;;;;;;5.38;1.75;;;;;;;;;;5035527;28;20125;-74
2021/12/26 11:29:26;;;;;;;0.20;0.20;;;;;;;;;;5032375;28;20507;-74
2021/12/26 11:31:54;;;;;;;0.38;0.38;;;;;;;;;;5040085;28;20205;-74
2021/12/26 11:34:20;;;;;;;0.90;0.90;;;;;;;;;;5030943;28;20037;-74
2021/12/26 11:36:48;;;;;;;0.82;0.40;;;;;;;;;;5033317;28;20522;-74
2021/12/26 11:39:14;;;;;;;0.10;0.10;;;;;;;;;;5033857;28;20040;-75
2021/12/26 11:42:15;;;;;;;0.47;0.47;;;;;;;;;;5036454;28;20029;-74
2021/12/26 11:45:01;;;;;;;1.70;1.38;;;;;;;;;;5011748;28;20119;-74
2021/12/26 11:47:28;;;;;;;1.00;1.00;;;;;;;;;;5032449;28;20255;-74
2021/12/26 11:50:03;;;;;;;0.08;0.08;;;;;;;;;;5032440;28;20045;-74
2021/12/26 11:52:55;;;;;;;0.57;0.55;;;;;;;;;;5037441;28;20073;-75
2021/12/26 11:55:45;;;;;;;1.42;1.33;;;;;;;;;;5029008;28;20033;-76
2021/12/26 11:58:20;;;;;;;2.55;1.45;;;;;;;;;;5025487;28;20483;-73
2021/12/26 12:00:50;;;;;;;1.27;0.95;;;;;;;;;;5043821;28;20059;-74
2021/12/26 12:03:26;;;;;;;0.10;0.10;;;;;;;;;;5035969;28;20548;-78
2021/12/26 12:05:53;;;;;;;0.10;0.10;;;;;;;;;;5035916;28;20120;-74
2021/12/26 12:08:26;;;;;;;0.22;0.22;;;;;;;;;;5035656;28;20139;-74
2021/12/26 12:10:55;;;;;;;0.52;0.52;;;;;;;;;;5034700;28;20037;-74
2021/12/26 12:13:27;;;;;;;0.73;0.73;;;;;;;;;;5037581;28;20045;-72
2021/12/26 12:16:04;;;;;;;0.10;0.10;;;;;;;;;;5040669;28;20032;-72
2021/12/26 12:18:31;;;;;;;0.10;0.10;;;;;;;;;;5034403;28;20060;-71
2021/12/26 12:21:16;;;;;;;0.10;0.10;;;;;;;;;;5037419;28;20515;-72
2021/12/26 12:24:00;;;;;;;0.25;0.25;;;;;;;;;;5037972;28;20471;-71
2021/12/26 12:26:41;;;;;;;1.02;0.95;;;;;;;;;;5033334;28;20538;-72
2021/12/26 12:29:08;;;;;;;4.72;1.42;;;;;;;;;;5024973;28;20030;-73
2021/12/26 12:31:34;;;;;;;1.20;0.93;;;;;;;;;;5025139;28;20771;-71
2021/12/26 12:34:04;;;;;;;0.45;0.45;;;;;;;;;;5028762;28;20025;-72
2021/12/26 12:36:32;;;;;;;0.08;0.05;;;;;;;;;;5019529;28;20124;-72
2021/12/26 12:39:09;;;;;;;2.47;1.23;;;;;;;;;;5023634;28;20045;-72
2021/12/26 12:41:39;;;;;;;4.28;0.65;;;;;;;;;;5025107;28;20033;-72
2021/12/26 12:44:06;;;;;;;0.20;0.20;;;;;;;;;;5034571;28;20032;-72
2021/12/26 12:46:51;;;;;;;0.30;0.30;;;;;;;;;;5031395;28;20488;-71
2021/12/26 12:49:17;;;;;;;4.47;1.75;;;;;;;;;;5021837;28;20040;-71
2021/12/26 12:51:45;;;;;;;3.58;3.20;;;;;;;;;;5024320;28;20044;-70
2021/12/26 12:54:30;;;;;;;3.10;1.65;;;;;;;;;;5024866;28;20825;-70
2021/12/26 12:56:57;;;;;;;2.65;1.50;;;;;;;;;;5018846;28;20120;-70
2021/12/26 12:59:27;;;;;;;0.47;0.47;;;;;;;;;;5024046;28;20040;-71
2021/12/26 13:01:53;;;;;;;0.25;0.25;;;;;;;;;;5018642;28;20381;-70
2021/12/26 13:04:20;;;;;;;0.17;0.17;;;;;;;;;;5017514;28;20037;-71
2021/12/26 13:06:53;;;;;;;0.10;0.10;;;;;;;;;;5025719;28;20428;-72
2021/12/26 13:09:19;;;;;;;5.20;1.52;;;;;;;;;;5045311;28;20025;-70
2021/12/26 13:11:45;;;;;;;0.10;0.10;;;;;;;;;;5038736;28;20058;-71
2021/12/26 13:14:12;;;;;;;0.73;0.68;;;;;;;;;;5030077;28;20037;-70
2021/12/26 13:16:38;;;;;;;3.63;1.95;;;;;;;;;;5030147;28;20048;-71
2021/12/26 13:19:04;;;;;;;1.38;1.27;;;;;;;;;;5025246;28;20034;-70
2021/12/26 13:21:31;;;;;;;1.75;0.63;;;;;;;;;;5025537;28;20249;-71
2021/12/26 13:23:56;;;;;;;0.55;0.55;;;;;;;;;;5052721;28;20032;-71
2021/12/26 13:26:22;;;;;;;0.55;0.55;;;;;;;;;;5064794;28;20040;-70
2021/12/26 13:28:50;;;;;;;0.40;0.40;;;;;;;;;;5047042;28;20026;-71
2021/12/26 13:31:17;;;;;;;0.10;0.10;;;;;;;;;;5046213;28;20570;-70
2021/12/26 13:33:45;;;;;;;0.10;0.10;;;;;;;;;;5038957;28;20079;-70
2021/12/26 13:36:19;;;;;;;0.68;0.60;;;;;;;;;;5037823;28;20044;-70
2021/12/26 13:38:45;;;;;;;0.20;0.20;;;;;;;;;;5031630;28;20479;-70
2021/12/26 13:41:12;;;;;;;0.25;0.15;;;;;;;;;;5031128;28;20408;-70
2021/12/26 13:43:41;;;;;;;0.30;0.30;;;;;;;;;;5041844;28;20040;-70
2021/12/26 13:46:07;;;;;;;0.35;0.35;;;;;;;;;;5041235;28;20025;-71
2021/12/26 13:48:35;;;;;;;0.00;0.00;;;;;;;;;;5030430;28;20022;-71
2021/12/26 13:51:19;;;;;;;0.10;0.10;;;;;;;;;;5024109;28;20061;-70
2021/12/26 13:53:46;;;;;;;0.10;0.10;;;;;;;;;;5028603;28;20486;-70
2021/12/26 13:56:12;;;;;;;0.38;0.32;;;;;;;;;;5047610;28;20499;-70
2021/12/26 13:58:40;;;;;;;0.10;0.10;;;;;;;;;;5029961;28;20057;-70
2021/12/26 14:01:07;;;;;;;2.17;0.63;;;;;;;;;;5030684;28;20064;-70
2021/12/26 14:03:33;;;;;;;0.65;0.65;;;;;;;;;;5034839;28;20029;-71
2021/12/26 14:05:58;;;;;;;0.20;0.20;;;;;;;;;;5025978;28;20026;-70
2021/12/26 14:08:28;;;;;;;1.10;0.45;;;;;;;;;;5025542;28;20036;-71
2021/12/26 14:10:55;;;;;;;0.20;0.20;;;;;;;;;;5030541;28;20034;-70
2021/12/26 14:13:21;;;;;;;0.63;0.63;;;;;;;;;;5030420;28;20048;-72
2021/12/26 14:15:49;;;;;;;0.47;0.47;;;;;;;;;;5029119;28;20025;-71
2021/12/26 14:18:20;;;;;;;0.47;0.30;;;;;;;;;;5030598;28;20108;-71
2021/12/26 14:20:52;;;;;;;0.40;0.40;;;;;;;;;;5034630;28;20033;-70
2021/12/26 14:23:29;;;;;;;1.42;1.08;;;;;;;;;;5026947;28;20050;-71
2021/12/26 14:25:59;;;;;;;1.52;1.02;;;;;;;;;;5028216;28;20021;-71
2021/12/26 14:28:25;;;;;;;0.10;0.10;;;;;;;;;;5031477;28;20033;-70
2021/12/26 14:30:54;;;;;;;0.98;0.98;;;;;;;;;;5029194;28;20029;-70
2021/12/26 14:33:21;;;;;;;0.10;0.10;;;;;;;;;;5038352;28;20049;-70
2021/12/26 14:35:56;;;;;;;0.40;0.40;;;;;;;;;;5031732;28;20057;-70
2021/12/26 14:38:22;;;;;;;0.20;0.20;;;;;;;;;;5026933;28;20040;-72
2021/12/26 14:40:51;;;;;;;0.43;0.43;;;;;;;;;;5032784;28;20029;-71
2021/12/26 14:43:17;;;;;;;0.50;0.50;;;;;;;;;;5032965;28;20040;-72
2021/12/26 14:45:47;;;;;;;0.10;0.10;;;;;;;;;;5033816;28;20022;-72
2021/12/26 14:48:32;;;;;;;0.23;0.23;;;;;;;;;;5031181;28;20057;-71
2021/12/26 14:51:07;;;;;;;0.30;0.30;;;;;;;;;;5027457;28;20029;-71